Time;durP1;ratioP1;P1;durP2;ratioP2;P2;SDS_P1;SDS_P2;PMS_P1;PMS_P2;Temp;Humidity;BMP_temperature;BMP_pressure;BME280_temperature;BME280_humidity;BME280_pressure;Samples;Min_cycle;Max_cycle;Signal;HPM_P1;HPM_P2
2023/08/16 00:02:21;;;;;;;1.07;0.97;;;17.70;99.90;;;;;;5013684;28;20183;-73
2023/08/16 00:04:47;;;;;;;1.43;0.83;;;17.70;99.90;;;;;;5013441;28;20171;-74
2023/08/16 00:07:13;;;;;;;0.90;0.90;;;;;;;;;;4995936;28;20664;-74
2023/08/16 00:09:39;;;;;;;0.80;0.80;;;;;;;;;;5013667;28;20195;-72
2023/08/16 00:12:06;;;;;;;1.37;1.30;;;17.70;99.90;;;;;;5013351;28;20454;-72
2023/08/16 00:14:32;;;;;;;1.80;0.93;;;17.60;99.90;;;;;;5013298;28;20403;-72
2023/08/16 00:16:57;;;;;;;2.00;1.23;;;17.60;99.90;;;;;;5013620;28;20771;-72
2023/08/16 00:19:23;;;;;;;1.93;0.87;;;17.50;99.90;;;;;;4995615;28;20224;-72
2023/08/16 00:21:49;;;;;;;1.03;0.70;;;;;;;;;;5013461;28;20179;-72
2023/08/16 00:24:15;;;;;;;0.80;0.80;;;17.40;99.90;;;;;;5013322;28;20411;-73
2023/08/16 00:26:41;;;;;;;0.70;0.67;;;;;;;;;;5013208;28;20779;-73
2023/08/16 00:29:07;;;;;;;0.63;0.63;;;17.50;99.90;;;;;;5013434;28;20186;-74
2023/08/16 00:31:32;;;;;;;2.20;0.73;;;17.60;99.90;;;;;;5013235;28;20470;-72
2023/08/16 00:33:58;;;;;;;1.33;1.23;;;17.70;99.90;;;;;;5013326;28;20179;-72
2023/08/16 00:36:23;;;;;;;2.47;2.27;;;17.30;99.90;;;;;;5013221;28;20168;-73
2023/08/16 00:38:49;;;;;;;0.70;0.70;;;17.50;99.90;;;;;;5013441;28;20204;-73
2023/08/16 00:41:15;;;;;;;0.60;0.60;;;17.40;99.90;;;;;;5013173;28;20310;-74
2023/08/16 00:43:40;;;;;;;1.40;1.30;;;17.50;99.90;;;;;;5013245;28;20245;-73
2023/08/16 00:46:13;;;;;;;2.53;2.03;;;17.50;99.90;;;;;;5013002;28;20176;-72
2023/08/16 00:48:41;;;;;;;1.00;1.00;;;17.40;99.90;;;;;;5013401;28;20207;-73
2023/08/16 00:51:08;;;;;;;1.60;1.20;;;17.40;99.90;;;;;;5012954;28;20481;-73
2023/08/16 00:53:35;;;;;;;0.50;0.50;;;18.00;99.90;;;;;;5013971;28;20442;-73
2023/08/16 00:56:03;;;;;;;1.90;1.20;;;17.50;99.90;;;;;;5016671;28;20468;-74
2023/08/16 00:58:29;;;;;;;0.93;0.90;;;;;;;;;;5016725;28;20525;-73
2023/08/16 01:00:54;;;;;;;1.23;1.07;;;17.60;99.90;;;;;;5016634;28;20434;-73
2023/08/16 01:03:20;;;;;;;0.73;0.73;;;17.50;99.90;;;;;;5016601;28;20489;-72
2023/08/16 01:05:46;;;;;;;1.07;0.97;;;17.70;99.90;;;;;;5016673;28;20203;-72
2023/08/16 01:08:12;;;;;;;1.00;0.80;;;17.50;99.90;;;;;;5016764;28;20532;-72
2023/08/16 01:11:09;;;;;;;0.80;0.80;;;17.50;99.90;;;;;;5016457;28;20217;-73
2023/08/16 01:13:50;;;;;;;1.33;0.73;;;17.70;99.90;;;;;;5005935;28;20434;-73
2023/08/16 01:16:20;;;;;;;1.17;1.17;;;17.30;99.90;;;;;;5016388;28;20417;-72
2023/08/16 01:18:46;;;;;;;0.80;0.60;;;;;;;;;;5016244;28;20515;-72
2023/08/16 01:21:15;;;;;;;2.60;2.40;;;17.50;99.90;;;;;;5016346;28;20449;-72
2023/08/16 01:24:08;;;;;;;1.00;1.00;;;17.50;99.90;;;;;;5016276;28;20925;-73
2023/08/16 01:26:39;;;;;;;2.10;1.70;;;17.50;99.90;;;;;;5016159;28;20411;-71
2023/08/16 01:29:07;;;;;;;1.00;0.70;;;17.40;99.90;;;;;;5016336;28;20413;-73
2023/08/16 01:31:34;;;;;;;2.23;1.70;;;17.40;99.90;;;;;;5016031;28;20461;-73
2023/08/16 01:33:59;;;;;;;1.23;1.23;;;17.40;99.90;;;;;;5016078;28;20410;-72
2023/08/16 01:36:26;;;;;;;1.77;1.67;;;17.40;99.90;;;;;;5016044;28;20413;-73
2023/08/16 01:38:52;;;;;;;1.23;1.23;;;17.40;99.90;;;;;;5016220;28;20561;-72
2023/08/16 01:41:38;;;;;;;1.97;1.80;;;17.30;99.90;;;;;;5015843;28;20426;-74
2023/08/16 01:44:07;;;;;;;0.83;0.83;;;17.50;99.90;;;;;;5015766;28;20406;-73
2023/08/16 01:46:33;;;;;;;1.73;1.63;;;;;;;;;;5015895;28;20497;-71
2023/08/16 01:49:00;;;;;;;0.77;0.77;;;17.70;99.90;;;;;;5015909;28;20406;-73
2023/08/16 01:51:25;;;;;;;1.03;1.03;;;17.80;99.90;;;;;;5015565;28;20478;-72
2023/08/16 01:53:53;;;;;;;6.83;2.30;;;17.70;99.90;;;;;;5015782;28;20415;-73
2023/08/16 01:56:18;;;;;;;6.33;1.53;;;17.70;99.90;;;;;;5015787;28;20175;-73
2023/08/16 01:58:45;;;;;;;1.80;1.70;;;17.70;99.90;;;;;;5015862;28;20413;-72
2023/08/16 02:01:11;;;;;;;2.23;1.87;;;;;;;;;;5015534;28;20439;-72
2023/08/16 02:03:36;;;;;;;1.37;1.30;;;17.70;99.90;;;;;;5015523;28;20456;-72
2023/08/16 02:06:02;;;;;;;2.27;2.10;;;17.80;99.90;;;;;;5014616;28;20959;-73
2023/08/16 02:08:27;;;;;;;1.93;1.70;;;17.70;99.90;;;;;;5015661;28;20176;-72
2023/08/16 02:10:53;;;;;;;2.87;2.53;;;;;;;;;;5015712;28;20249;-72
2023/08/16 02:13:19;;;;;;;0.90;0.90;;;17.80;99.90;;;;;;5015418;28;20217;-73
2023/08/16 02:15:45;;;;;;;1.83;1.73;;;;;;;;;;5015139;28;20906;-72
2023/08/16 02:18:10;;;;;;;1.80;1.70;;;18.00;99.90;;;;;;5015265;28;20254;-73
2023/08/16 02:20:40;;;;;;;1.40;1.30;;;17.80;99.90;;;;;;5015038;28;20453;-73
2023/08/16 02:23:06;;;;;;;3.03;1.90;;;17.80;99.90;;;;;;5015121;28;20187;-72
2023/08/16 02:25:32;;;;;;;2.57;2.17;;;17.80;99.90;;;;;;4997475;28;20986;-72
2023/08/16 02:27:59;;;;;;;0.97;0.90;;;17.70;99.90;;;;;;5015094;28;20502;-73
2023/08/16 02:30:25;;;;;;;1.53;1.53;;;17.60;99.90;;;;;;5015060;28;20474;-73
2023/08/16 02:32:51;;;;;;;0.60;0.60;;;;;;;;;;5014989;28;20410;-73
2023/08/16 02:35:16;;;;;;;6.90;2.30;;;17.50;99.90;;;;;;5014731;28;20403;-72
2023/08/16 02:37:42;;;;;;;4.63;1.87;;;17.80;99.90;;;;;;5015034;28;20463;-72
2023/08/16 02:40:09;;;;;;;2.00;1.90;;;17.80;99.90;;;;;;5014811;28;20675;-73
2023/08/16 02:42:34;;;;;;;3.90;2.07;;;18.00;99.90;;;;;;5014796;28;20484;-73
2023/08/16 02:45:00;;;;;;;2.40;2.20;;;17.70;99.90;;;;;;4997071;28;20414;-72
2023/08/16 02:47:27;;;;;;;1.53;1.43;;;17.80;99.90;;;;;;5014814;28;20406;-74
2023/08/16 02:49:53;;;;;;;2.27;1.53;;;17.50;99.90;;;;;;5014591;28;20434;-73
2023/08/16 02:52:19;;;;;;;1.47;1.37;;;17.80;99.90;;;;;;5014658;28;20863;-72
2023/08/16 02:54:44;;;;;;;1.93;1.80;;;17.80;99.90;;;;;;5014467;28;20406;-74
2023/08/16 02:57:10;;;;;;;1.90;1.60;;;17.70;99.90;;;;;;5014581;28;20539;-73
2023/08/16 02:59:46;;;;;;;1.13;1.07;;;17.70;99.90;;;;;;5014546;28;20242;-72
2023/08/16 03:02:12;;;;;;;2.90;2.70;;;17.70;99.90;;;;;;5014789;28;20174;-74
2023/08/16 03:04:41;;;;;;;1.83;1.73;;;17.80;99.90;;;;;;5014449;28;20496;-74
2023/08/16 03:07:07;;;;;;;2.20;2.10;;;;;;;;;;5014314;28;20415;-73
2023/08/16 03:09:33;;;;;;;2.47;2.27;;;17.90;99.90;;;;;;5014252;28;20772;-74
2023/08/16 03:11:59;;;;;;;2.30;2.00;;;17.80;99.90;;;;;;5014244;28;20549;-74
2023/08/16 03:14:24;;;;;;;1.63;1.53;;;17.80;99.90;;;;;;5014349;28;20414;-73
2023/08/16 03:16:53;;;;;;;2.50;2.30;;;17.90;99.90;;;;;;4995156;28;20175;-73
2023/08/16 03:19:19;;;;;;;1.80;1.70;;;17.60;99.90;;;;;;5013372;28;20552;-72
2023/08/16 03:21:44;;;;;;;2.10;1.97;;;17.80;99.90;;;;;;5014432;28;20414;-72
2023/08/16 03:24:10;;;;;;;2.33;2.17;;;18.00;99.90;;;;;;5013656;28;20538;-72
2023/08/16 03:26:36;;;;;;;1.70;1.60;;;17.90;99.90;;;;;;5014142;28;20179;-73
2023/08/16 03:29:03;;;;;;;3.40;2.10;;;17.90;99.90;;;;;;5014286;28;20595;-73
2023/08/16 03:31:29;;;;;;;0.93;0.93;;;17.80;99.90;;;;;;5013808;28;20965;-73
2023/08/16 03:33:54;;;;;;;1.57;1.47;;;17.90;99.90;;;;;;5013772;28;20418;-73
2023/08/16 03:36:20;;;;;;;1.47;1.10;;;17.90;99.90;;;;;;5013885;28;20408;-72
2023/08/16 03:38:46;;;;;;;1.10;1.00;;;17.90;99.90;;;;;;5013986;28;20654;-72
2023/08/16 03:41:12;;;;;;;1.83;1.73;;;;;;;;;;5013718;28;20192;-73
2023/08/16 03:43:38;;;;;;;2.13;1.47;;;17.70;99.90;;;;;;5013979;28;20179;-73
2023/08/16 03:46:04;;;;;;;2.73;2.60;;;17.80;99.90;;;;;;4995960;28;20427;-73
2023/08/16 03:48:30;;;;;;;2.33;1.87;;;;;;;;;;5013565;28;20419;-72
2023/08/16 03:50:56;;;;;;;2.33;1.60;;;17.50;99.90;;;;;;5013511;28;20800;-72
2023/08/16 03:53:22;;;;;;;2.40;1.67;;;17.70;99.90;;;;;;5013696;28;20468;-73
2023/08/16 03:55:48;;;;;;;1.20;1.20;;;17.80;99.90;;;;;;5013650;28;20177;-73
2023/08/16 03:58:14;;;;;;;3.90;3.10;;;;;;;;;;5013756;28;20710;-72
2023/08/16 04:00:40;;;;;;;1.63;1.33;;;17.70;99.90;;;;;;5013536;28;20197;-73
2023/08/16 04:03:06;;;;;;;1.70;1.60;;;17.60;99.90;;;;;;5013541;28;20420;-72
2023/08/16 04:05:33;;;;;;;2.50;1.70;;;17.70;99.90;;;;;;5013365;28;20463;-73
2023/08/16 04:07:58;;;;;;;1.47;1.37;;;17.80;99.90;;;;;;5013494;28;20501;-71
2023/08/16 04:10:24;;;;;;;2.20;1.50;;;17.80;99.90;;;;;;5013399;28;20883;-72
2023/08/16 04:12:50;;;;;;;1.60;1.50;;;17.60;99.90;;;;;;5013426;28;20218;-72
2023/08/16 04:15:15;;;;;;;2.00;1.57;;;17.80;99.90;;;;;;5013372;28;20206;-73
2023/08/16 04:17:41;;;;;;;1.20;1.17;;;;;;;;;;5013378;28;20211;-73
2023/08/16 04:20:07;;;;;;;1.80;1.50;;;17.60;99.90;;;;;;5013231;28;20203;-72
2023/08/16 04:22:34;;;;;;;1.00;0.90;;;17.50;99.90;;;;;;5013496;28;20545;-72
2023/08/16 04:25:01;;;;;;;2.53;2.33;;;;;;;;;;5013119;28;20437;-72
2023/08/16 04:27:28;;;;;;;1.10;1.10;;;;;;;;;;5013203;28;20414;-72
2023/08/16 04:29:53;;;;;;;1.47;1.37;;;17.40;99.90;;;;;;5016775;28;20506;-73
2023/08/16 04:32:19;;;;;;;2.23;1.80;;;;;;;;;;5017577;28;21648;-72
2023/08/16 04:34:45;;;;;;;1.70;1.60;;;17.50;99.90;;;;;;5017128;28;20176;-71
2023/08/16 04:37:10;;;;;;;2.60;2.40;;;17.90;99.90;;;;;;5017206;28;20883;-73
2023/08/16 04:39:36;;;;;;;1.00;1.00;;;17.60;99.90;;;;;;5017270;28;20184;-72
2023/08/16 04:42:02;;;;;;;1.37;1.27;;;17.60;99.90;;;;;;5017166;28;20233;-72
2023/08/16 04:44:28;;;;;;;2.37;2.27;;;17.70;99.90;;;;;;5016951;28;20171;-74
2023/08/16 04:46:54;;;;;;;3.20;3.00;;;;;;;;;;5016939;28;20406;-73
2023/08/16 04:49:20;;;;;;;2.43;1.80;;;17.40;99.90;;;;;;5016891;28;20234;-73
2023/08/16 04:51:46;;;;;;;1.43;1.33;;;17.60;99.90;;;;;;5016887;28;21007;-72
2023/08/16 04:54:11;;;;;;;1.90;1.70;;;;;;;;;;5016779;28;20437;-73
2023/08/16 04:56:37;;;;;;;1.47;1.37;;;;;;;;;;5016773;28;20252;-72
2023/08/16 04:59:03;;;;;;;1.70;1.60;;;17.60;99.90;;;;;;5016907;28;20409;-72
2023/08/16 05:01:29;;;;;;;1.70;1.60;;;17.70;99.90;;;;;;5016868;28;20505;-73
2023/08/16 05:03:54;;;;;;;2.50;2.40;;;17.70;99.90;;;;;;5016518;28;20693;-72
2023/08/16 05:06:20;;;;;;;1.73;1.63;;;17.70;99.90;;;;;;5016581;28;20176;-72
2023/08/16 05:08:46;;;;;;;2.77;2.40;;;;;;;;;;5016794;28;20591;-73
2023/08/16 05:11:12;;;;;;;2.87;2.67;;;17.60;99.90;;;;;;5016460;28;20207;-71
2023/08/16 05:13:37;;;;;;;1.97;1.87;;;17.70;99.90;;;;;;4998867;28;20423;-72
2023/08/16 05:16:03;;;;;;;1.83;1.73;;;17.90;99.90;;;;;;5016326;28;20176;-73
2023/08/16 05:18:29;;;;;;;1.97;1.87;;;;;;;;;;5016434;28;20164;-71
2023/08/16 05:20:56;;;;;;;1.43;1.33;;;17.90;99.90;;;;;;5016181;28;20215;-71
2023/08/16 05:23:22;;;;;;;2.80;2.60;;;18.20;99.90;;;;;;5016439;28;20420;-74
2023/08/16 05:25:48;;;;;;;2.10;2.00;;;18.50;99.90;;;;;;5016316;28;20431;-73
2023/08/16 05:28:14;;;;;;;7.50;2.27;;;19.40;99.90;;;;;;5016127;28;20185;-73
2023/08/16 05:30:39;;;;;;;3.33;3.07;;;19.40;99.90;;;;;;5016005;28;20964;-74
2023/08/16 05:33:05;;;;;;;1.60;1.50;;;19.80;99.90;;;;;;5016138;28;20518;-72
2023/08/16 05:35:34;;;;;;;1.50;1.40;;;20.10;99.90;;;;;;5016056;28;20226;-74
2023/08/16 05:38:00;;;;;;;2.53;2.40;;;20.30;99.90;;;;;;5016200;28;20223;-74
2023/08/16 05:40:26;;;;;;;1.07;1.07;;;20.60;99.90;;;;;;5014960;28;20512;-73
2023/08/16 05:42:51;;;;;;;2.00;1.83;;;20.80;99.90;;;;;;5015956;28;20983;-72
2023/08/16 05:45:21;;;;;;;1.23;1.13;;;21.30;99.90;;;;;;5015737;28;20202;-74
2023/08/16 05:47:47;;;;;;;2.10;1.70;;;;;;;;;;5015836;28;20187;-74
2023/08/16 05:50:12;;;;;;;2.07;1.93;;;22.80;99.90;;;;;;5015653;28;20493;-73
2023/08/16 05:52:38;;;;;;;1.50;1.40;;;;;;;;;;5015707;28;20454;-73
2023/08/16 05:55:04;;;;;;;0.90;0.90;;;23.20;98.80;;;;;;5015424;28;20176;-72
2023/08/16 05:57:30;;;;;;;2.80;2.43;;;23.60;99.00;;;;;;5015622;28;20410;-74
2023/08/16 05:59:55;;;;;;;10.63;1.80;;;24.60;97.60;;;;;;5015731;28;20195;-74
2023/08/16 06:02:23;;;;;;;2.10;1.30;;;;;;;;;;5015518;28;20183;-74
2023/08/16 06:04:49;;;;;;;1.30;1.20;;;25.10;96.30;;;;;;5014311;28;20537;-74
2023/08/16 06:07:16;;;;;;;1.73;1.63;;;25.20;94.90;;;;;;5014614;28;20408;-75
2023/08/16 06:09:42;;;;;;;1.20;1.20;;;25.20;95.30;;;;;;5014346;28;20426;-73
2023/08/16 06:12:08;;;;;;;1.50;1.37;;;25.20;95.10;;;;;;5015028;28;20956;-75
2023/08/16 06:14:33;;;;;;;2.30;2.10;;;25.00;95.30;;;;;;5015531;28;20222;-74
2023/08/16 06:16:59;;;;;;;4.63;1.57;;;;;;;;;;5015282;28;20644;-74
2023/08/16 06:19:25;;;;;;;1.87;1.77;;;25.00;99.90;;;;;;5015256;28;20281;-74
2023/08/16 06:21:51;;;;;;;1.40;1.30;;;25.00;96.20;;;;;;5015402;28;20418;-74
2023/08/16 06:24:17;;;;;;;1.43;1.33;;;;;;;;;;5015521;28;20172;-74
2023/08/16 06:26:42;;;;;;;1.70;1.60;;;25.20;95.50;;;;;;5015619;28;20190;-74
2023/08/16 06:29:08;;;;;;;2.50;1.60;;;25.20;99.90;;;;;;5015361;28;20742;-74
2023/08/16 06:31:33;;;;;;;1.07;1.00;;;25.20;96.00;;;;;;5015310;28;20203;-72
2023/08/16 06:34:00;;;;;;;9.17;1.67;;;25.20;95.60;;;;;;5015154;28;20171;-73
2023/08/16 06:36:26;;;;;;;1.33;1.23;;;25.20;95.60;;;;;;5014406;28;20178;-74
2023/08/16 06:38:53;;;;;;;1.43;1.30;;;25.20;95.60;;;;;;4995377;28;20423;-73
2023/08/16 06:41:19;;;;;;;1.40;1.30;;;25.40;95.50;;;;;;5012934;28;20413;-74
2023/08/16 06:43:45;;;;;;;1.03;1.03;;;25.50;95.40;;;;;;5013894;28;20385;-74
2023/08/16 06:46:10;;;;;;;1.93;1.10;;;25.50;95.60;;;;;;5013568;28;20451;-73
2023/08/16 06:48:36;;;;;;;1.37;1.30;;;25.60;95.30;;;;;;5014870;28;20264;-74
2023/08/16 06:51:02;;;;;;;1.30;1.20;;;25.70;95.20;;;;;;5015021;28;20216;-74
2023/08/16 06:53:30;;;;;;;1.80;1.63;;;25.80;95.10;;;;;;5014252;28;20206;-74
2023/08/16 06:55:56;;;;;;;1.90;1.40;;;25.70;95.20;;;;;;5012740;28;20455;-73
2023/08/16 06:58:22;;;;;;;1.30;1.20;;;;;;;;;;5012912;28;20389;-73
2023/08/16 07:00:49;;;;;;;0.73;0.73;;;25.60;99.90;;;;;;5013527;28;20196;-73
2023/08/16 07:03:15;;;;;;;1.70;1.60;;;25.60;96.40;;;;;;5012312;28;20414;-72
2023/08/16 07:05:41;;;;;;;2.03;1.60;;;25.60;96.40;;;;;;5011311;28;20451;-74
2023/08/16 07:08:07;;;;;;;1.07;0.70;;;;;;;;;;5011809;28;20393;-73
2023/08/16 07:10:33;;;;;;;1.53;1.37;;;25.70;95.00;;;;;;5011935;28;20557;-73
2023/08/16 07:12:58;;;;;;;3.20;1.77;;;25.90;95.90;;;;;;5012532;28;20440;-73
2023/08/16 07:15:24;;;;;;;0.83;0.83;;;26.00;94.90;;;;;;5012661;28;20618;-73
2023/08/16 07:17:50;;;;;;;5.17;1.80;;;26.20;95.00;;;;;;5013317;28;20306;-74
2023/08/16 07:20:15;;;;;;;1.53;1.43;;;26.50;94.80;;;;;;5014283;28;20214;-72
2023/08/16 07:22:41;;;;;;;3.07;1.53;;;26.60;95.40;;;;;;5014279;28;20258;-74
2023/08/16 07:25:08;;;;;;;2.27;1.40;;;27.00;94.10;;;;;;5014006;28;20172;-74
2023/08/16 07:27:34;;;;;;;1.90;1.80;;;27.50;93.50;;;;;;5014055;28;20411;-73
2023/08/16 07:30:00;;;;;;;1.50;1.40;;;28.30;92.00;;;;;;5013922;28;20918;-74
2023/08/16 07:32:26;;;;;;;0.80;0.80;;;29.10;91.00;;;;;;5014061;28;20537;-74
2023/08/16 07:34:52;;;;;;;2.20;1.40;;;;;;;;;;5013778;28;20789;-74
2023/08/16 07:37:18;;;;;;;1.40;1.30;;;30.40;88.80;;;;;;5014070;28;20175;-74
2023/08/16 07:39:44;;;;;;;1.23;1.13;;;31.10;88.00;;;;;;5014116;28;21014;-71
2023/08/16 07:42:10;;;;;;;1.10;1.00;;;31.80;84.10;;;;;;5013914;28;20195;-71
2023/08/16 07:44:36;;;;;;;2.10;2.00;;;32.40;79.50;;;;;;5013670;28;20782;-71
2023/08/16 07:47:02;;;;;;;1.20;1.20;;;33.30;76.60;;;;;;5013870;28;20601;-71
2023/08/16 07:49:29;;;;;;;1.60;1.23;;;34.30;72.00;;;;;;5013764;28;20763;-71
2023/08/16 07:51:55;;;;;;;2.00;1.60;;;35.10;69.80;;;;;;5013625;28;20454;-72
2023/08/16 07:54:22;;;;;;;1.27;1.17;;;36.10;65.50;;;;;;5013789;28;20442;-71
2023/08/16 07:56:47;;;;;;;1.50;1.40;;;37.20;61.70;;;;;;5013576;28;20486;-72
2023/08/16 07:59:13;;;;;;;1.20;1.10;;;38.70;72.50;;;;;;5013982;28;20406;-72
2023/08/16 08:01:39;;;;;;;1.40;1.40;;;39.00;52.90;;;;;;5013844;28;20175;-72
2023/08/16 08:04:05;;;;;;;1.80;1.70;;;39.60;50.30;;;;;;5013063;28;20172;-73
2023/08/16 08:06:31;;;;;;;4.50;1.23;;;40.20;49.30;;;;;;5013701;28;20413;-72
2023/08/16 08:08:56;;;;;;;2.30;1.30;;;41.00;48.70;;;;;;5013516;28;20183;-72
2023/08/16 08:11:22;;;;;;;1.53;1.43;;;41.60;48.50;;;;;;5013481;28;20211;-72
2023/08/16 08:13:48;;;;;;;4.03;1.40;;;42.30;47.00;;;;;;5013450;28;20175;-71
2023/08/16 08:16:13;;;;;;;0.90;0.90;;;42.90;45.90;;;;;;5013449;28;20572;-73
2023/08/16 08:18:39;;;;;;;1.23;1.13;;;43.00;43.50;;;;;;5013602;28;20170;-72
2023/08/16 08:21:04;;;;;;;1.43;1.30;;;43.10;41.70;;;;;;5013392;28;20194;-72
2023/08/16 08:23:30;;;;;;;1.60;1.50;;;43.00;42.90;;;;;;5013867;28;20224;-71
2023/08/16 08:25:56;;;;;;;1.20;1.10;;;42.40;42.10;;;;;;5013291;28;20277;-72
2023/08/16 08:28:22;;;;;;;2.83;1.33;;;42.20;42.20;;;;;;5013471;28;20177;-72
2023/08/16 08:30:48;;;;;;;1.23;0.90;;;42.30;41.30;;;;;;5013236;28;20601;-73
2023/08/16 08:33:14;;;;;;;1.60;1.50;;;42.30;41.00;;;;;;5013331;28;20405;-72
2023/08/16 08:35:40;;;;;;;1.23;1.13;;;42.00;40.00;;;;;;5013144;28;20414;-72
2023/08/16 08:38:05;;;;;;;1.97;1.40;;;41.50;41.80;;;;;;5013680;28;20168;-73
2023/08/16 08:40:31;;;;;;;1.20;1.07;;;41.40;42.10;;;;;;5013265;28;20256;-72
2023/08/16 08:43:03;;;;;;;1.03;1.00;;;41.40;41.70;;;;;;5013310;28;20163;-72
2023/08/16 08:45:30;;;;;;;2.50;1.20;;;42.40;42.20;;;;;;5013298;28;20732;-73
2023/08/16 08:47:59;;;;;;;2.23;1.23;;;42.40;42.70;;;;;;5013240;28;20776;-72
2023/08/16 08:50:29;;;;;;;2.23;1.40;;;42.40;41.00;;;;;;5013275;28;20792;-72
2023/08/16 08:52:56;;;;;;;1.50;1.40;;;42.80;39.80;;;;;;5013127;28;20495;-73
2023/08/16 08:55:25;;;;;;;1.30;1.20;;;42.80;40.30;;;;;;5012926;28;20399;-73
2023/08/16 08:57:55;;;;;;;2.47;1.50;;;43.20;38.50;;;;;;5013187;28;20398;-72
2023/08/16 09:00:21;;;;;;;1.87;1.77;;;41.60;41.70;;;;;;5013032;28;20517;-72
2023/08/16 09:02:52;;;;;;;1.37;1.23;;;41.30;40.90;;;;;;5013080;28;20402;-72
2023/08/16 09:05:21;;;;;;;2.00;1.70;;;40.90;41.60;;;;;;5012912;28;20417;-73
2023/08/16 09:07:48;;;;;;;1.47;1.37;;;40.90;42.10;;;;;;5013118;28;20712;-71
2023/08/16 09:10:14;;;;;;;1.67;1.43;;;;;;;;;;5013008;28;20452;-72
2023/08/16 09:12:40;;;;;;;1.43;1.33;;;;;;;;;;5012938;28;20462;-72
2023/08/16 09:15:07;;;;;;;1.27;1.20;;;40.00;43.70;;;;;;5013278;28;20826;-72
2023/08/16 09:17:34;;;;;;;1.20;1.10;;;;;;;;;;5016484;28;20827;-72
2023/08/16 09:20:05;;;;;;;1.53;1.43;;;41.20;40.80;;;;;;5016303;28;20473;-72
2023/08/16 09:22:31;;;;;;;1.70;1.60;;;41.30;41.50;;;;;;5016620;28;20409;-72
2023/08/16 09:24:58;;;;;;;1.50;1.40;;;41.10;40.80;;;;;;5016148;28;20497;-72
2023/08/16 09:27:25;;;;;;;2.07;1.63;;;;;;;;;;5016451;28;20168;-72
2023/08/16 09:29:54;;;;;;;2.53;1.47;;;41.20;41.00;;;;;;5016255;28;20441;-71
2023/08/16 09:32:21;;;;;;;1.77;1.67;;;40.90;41.00;;;;;;5016132;28;20964;-72
2023/08/16 09:34:47;;;;;;;1.60;1.50;;;40.30;41.10;;;;;;4998473;28;20415;-72
2023/08/16 09:37:15;;;;;;;1.50;1.30;;;;;;;;;;5016204;28;20402;-72
2023/08/16 09:39:40;;;;;;;1.60;1.50;;;40.20;41.00;;;;;;5016103;28;20433;-73
2023/08/16 09:42:10;;;;;;;1.40;1.30;;;40.30;41.50;;;;;;5016206;28;20763;-73
2023/08/16 09:44:37;;;;;;;2.37;1.50;;;40.20;41.00;;;;;;5015966;28;20179;-73
2023/08/16 09:47:13;;;;;;;1.23;1.13;;;40.20;41.60;;;;;;5016111;28;20410;-71
2023/08/16 09:49:39;;;;;;;1.47;1.27;;;40.10;42.00;;;;;;5015846;28;20509;-71
2023/08/16 09:52:11;;;;;;;1.20;1.10;;;40.40;43.40;;;;;;5015777;28;20457;-72
2023/08/16 09:54:38;;;;;;;1.40;1.30;;;;;;;;;;5015656;28;20414;-72
2023/08/16 09:57:05;;;;;;;3.33;1.30;;;41.00;41.00;;;;;;5015462;28;20461;-72
2023/08/16 09:59:31;;;;;;;1.43;1.33;;;41.10;40.60;;;;;;5016077;28;20488;-72
2023/08/16 10:02:00;;;;;;;1.47;1.37;;;41.10;42.20;;;;;;5015796;28;20903;-72
2023/08/16 10:04:27;;;;;;;1.80;1.30;;;41.00;41.10;;;;;;5015620;28;20407;-72
2023/08/16 10:06:53;;;;;;;1.97;1.77;;;;;;;;;;5015683;28;20433;-72
2023/08/16 10:09:20;;;;;;;1.90;1.80;;;40.20;59.40;;;;;;5015620;28;20878;-72
2023/08/16 10:11:47;;;;;;;1.87;1.73;;;40.40;42.50;;;;;;5015282;28;20462;-72
2023/08/16 10:14:13;;;;;;;1.77;1.67;;;;;;;;;;5015208;28;20815;-72
2023/08/16 10:16:42;;;;;;;2.63;1.97;;;38.90;43.00;;;;;;5015425;28;20489;-72
2023/08/16 10:19:13;;;;;;;2.67;1.30;;;38.20;65.00;;;;;;5015111;28;20434;-72
2023/08/16 10:21:43;;;;;;;1.43;1.33;;;38.20;43.90;;;;;;4997725;28;20420;-72
2023/08/16 10:24:13;;;;;;;2.00;1.60;;;38.10;46.90;;;;;;5015168;28;20410;-72
2023/08/16 10:26:41;;;;;;;1.40;1.30;;;38.10;45.80;;;;;;5014754;28;20417;-72
2023/08/16 10:29:11;;;;;;;1.87;1.77;;;37.60;44.70;;;;;;5015422;28;20430;-72
2023/08/16 10:31:41;;;;;;;1.53;1.43;;;37.70;45.30;;;;;;5014985;28;20823;-72
2023/08/16 10:34:09;;;;;;;1.30;1.20;;;37.60;45.60;;;;;;5014956;28;20464;-72
2023/08/16 10:36:35;;;;;;;1.20;1.10;;;37.30;44.90;;;;;;5014863;28;20414;-72
2023/08/16 10:39:00;;;;;;;1.60;1.50;;;36.90;45.10;;;;;;5014939;28;20746;-72
2023/08/16 10:41:26;;;;;;;1.13;1.07;;;36.40;48.90;;;;;;5014864;28;20441;-71
2023/08/16 10:43:53;;;;;;;1.60;1.37;;;36.20;48.40;;;;;;5014856;28;20176;-71
2023/08/16 10:46:30;;;;;;;1.63;1.53;;;35.80;47.60;;;;;;5014921;28;20410;-71
2023/08/16 10:49:00;;;;;;;1.50;1.40;;;35.50;48.30;;;;;;5014884;28;20410;-72
2023/08/16 10:51:26;;;;;;;1.87;1.77;;;35.00;45.90;;;;;;5014575;28;20465;-72
2023/08/16 10:53:56;;;;;;;1.53;1.00;;;34.30;48.10;;;;;;5014923;28;20415;-72
2023/08/16 10:56:22;;;;;;;1.40;1.27;;;;;;;;;;5014767;28;20411;-72
2023/08/16 10:58:49;;;;;;;1.67;1.57;;;34.20;48.70;;;;;;5014647;28;20505;-71
2023/08/16 11:01:16;;;;;;;1.23;1.13;;;34.30;51.20;;;;;;5014499;28;20441;-72
2023/08/16 11:03:43;;;;;;;1.30;1.20;;;34.00;50.10;;;;;;5014481;28;20411;-71
2023/08/16 11:06:14;;;;;;;0.90;0.90;;;34.00;49.70;;;;;;5014291;28;20814;-72
2023/08/16 11:08:43;;;;;;;1.53;0.90;;;33.30;46.70;;;;;;5014478;28;20406;-72
2023/08/16 11:11:11;;;;;;;1.60;1.50;;;33.30;47.20;;;;;;4996527;28;20816;-72
2023/08/16 11:13:42;;;;;;;1.20;1.10;;;32.90;48.20;;;;;;5014506;28;20437;-71
2023/08/16 11:16:10;;;;;;;2.83;1.27;;;32.70;49.10;;;;;;5014292;28;20489;-71
2023/08/16 11:18:37;;;;;;;1.07;0.93;;;32.70;46.90;;;;;;5014218;28;20409;-71
2023/08/16 11:21:07;;;;;;;1.17;1.07;;;32.70;46.80;;;;;;5014137;28;20442;-72
2023/08/16 11:23:39;;;;;;;0.77;0.70;;;32.70;46.80;;;;;;5014358;28;20411;-72
2023/08/16 11:26:05;;;;;;;1.63;1.53;;;;;;;;;;5014133;28;20429;-72
2023/08/16 11:28:32;;;;;;;1.23;1.13;;;32.30;44.70;;;;;;5014079;28;20461;-72
2023/08/16 11:30:59;;;;;;;1.30;1.20;;;;;;;;;;5013852;28;20512;-71
2023/08/16 11:33:32;;;;;;;1.50;1.40;;;31.90;44.80;;;;;;5014001;28;20406;-71
2023/08/16 11:35:58;;;;;;;3.23;1.63;;;31.80;47.20;;;;;;5013957;28;20413;-71
2023/08/16 11:38:24;;;;;;;1.70;1.60;;;;;;;;;;5013357;28;20810;-71
2023/08/16 11:40:51;;;;;;;1.20;1.10;;;31.90;45.50;;;;;;5013903;28;20926;-71
2023/08/16 11:43:16;;;;;;;0.93;0.80;;;31.80;47.70;;;;;;5013810;28;20448;-71
2023/08/16 11:45:42;;;;;;;1.40;1.30;;;;;;;;;;5013753;28;20791;-71
2023/08/16 11:48:08;;;;;;;1.07;0.97;;;;;;;;;;5013882;28;20182;-70
2023/08/16 11:50:34;;;;;;;1.00;1.00;;;;;;;;;;5013782;28;20430;-71
2023/08/16 11:53:02;;;;;;;1.83;1.20;;;31.60;45.90;;;;;;5013796;28;20461;-71
2023/08/16 11:55:29;;;;;;;1.00;0.90;;;31.60;46.80;;;;;;5013800;28;20898;-72
2023/08/16 11:58:06;;;;;;;1.83;1.73;;;31.60;45.60;;;;;;5013854;28;20420;-71
2023/08/16 12:00:34;;;;;;;1.23;1.17;;;31.20;45.90;;;;;;5013736;28;20437;-70
2023/08/16 12:03:03;;;;;;;1.63;1.53;;;30.90;47.20;;;;;;5013636;28;20402;-71
2023/08/16 12:05:36;;;;;;;1.30;1.20;;;30.70;47.50;;;;;;5013758;28;20410;-71
2023/08/16 12:08:06;;;;;;;1.20;0.77;;;30.30;51.00;;;;;;5013704;28;20889;-72
2023/08/16 12:10:35;;;;;;;2.60;1.60;;;31.00;47.90;;;;;;5013531;28;20496;-72
2023/08/16 12:13:14;;;;;;;1.30;1.20;;;31.10;49.00;;;;;;5013481;28;20462;-72
2023/08/16 12:15:41;;;;;;;1.23;1.23;;;31.10;50.00;;;;;;5013496;28;20407;-71
2023/08/16 12:18:07;;;;;;;2.30;1.50;;;30.90;50.00;;;;;;5013552;28;20417;-71
2023/08/16 12:20:33;;;;;;;1.70;1.60;;;30.80;49.90;;;;;;5013282;28;20489;-71
2023/08/16 12:22:58;;;;;;;1.63;1.10;;;30.90;51.40;;;;;;5013424;28;20457;-72
2023/08/16 12:25:24;;;;;;;1.17;1.00;;;30.90;49.80;;;;;;5013364;28;20179;-72
2023/08/16 12:27:50;;;;;;;1.70;1.53;;;30.90;50.60;;;;;;5013371;28;20221;-71
2023/08/16 12:30:17;;;;;;;0.70;0.70;;;;;;;;;;5013529;28;20430;-72
2023/08/16 12:32:42;;;;;;;1.43;1.40;;;30.50;51.50;;;;;;5013240;28;20446;-71
2023/08/16 12:35:09;;;;;;;1.10;1.10;;;;;;;;;;5013243;28;20473;-71
2023/08/16 12:37:35;;;;;;;1.37;1.27;;;30.70;49.00;;;;;;5013451;28;20229;-72
2023/08/16 12:40:01;;;;;;;1.37;1.27;;;30.50;50.30;;;;;;5013198;28;20426;-72
2023/08/16 12:42:26;;;;;;;2.30;2.10;;;30.60;51.60;;;;;;5013280;28;20458;-71
2023/08/16 12:44:52;;;;;;;1.43;1.33;;;30.70;52.00;;;;;;5013027;28;20216;-71
2023/08/16 12:47:18;;;;;;;0.83;0.83;;;30.80;51.20;;;;;;5013281;28;20199;-71
2023/08/16 12:49:44;;;;;;;0.80;0.80;;;;;;;;;;5014634;28;20203;-72
2023/08/16 12:52:10;;;;;;;1.20;1.10;;;;;;;;;;5016852;28;20668;-71
2023/08/16 12:54:35;;;;;;;2.13;2.03;;;30.50;50.80;;;;;;5016748;28;20536;-71
2023/08/16 12:57:01;;;;;;;1.33;1.20;;;30.30;53.30;;;;;;5016965;28;20497;-71
2023/08/16 12:59:27;;;;;;;1.20;1.13;;;30.30;79.30;;;;;;5016868;28;20179;-72
2023/08/16 13:01:52;;;;;;;2.10;1.40;;;30.40;53.60;;;;;;5016815;28;20182;-71